ラロトンガ の空港の天気 - METARとTAF

ラロトンガ国際空港 ( NCRG / RAR ) - クック諸島 アバルア (ラロトンガ島)
飛行場実況気象(Metar)
観測時間02/17 13:00 CKT (02/17 23:00 UTC)
風向・風速西南西 4m/s
視程10km以上
天気現象
なし
気温29℃
湿度70%
気圧1007hPa
METARNCRG 172300Z AUTO 25007KT 210V280 9999 NCD 29/23 Q1007
過去の天気等 Google飛行場航空写真 Wunderground天気予報

過去48時間のMETAR

飛行場予報(TAF)
発表時間: 2/17 07:01 CKT (2/17 17:01 UTC)
予報対象時間: 17日8時 CKT ~ 18日8時 CKT
風向・風速東南東 4m/s
視程10km以上
全天の4割程度の雲 雲底高度 550m
TAF NCRG 171701Z 1718/1818 12008KT 9999 SCT018